createdAt,value
2023-02-19T00:02:41.267Z,86.30
2023-02-19T00:05:27.323Z,86.75
2023-02-19T00:08:13.137Z,87.45
2023-02-19T00:11:08.645Z,87.93
2023-02-19T00:13:57.436Z,88.29
2023-02-19T00:16:44.067Z,88.66
2023-02-19T00:19:30.746Z,88.42
2023-02-19T00:22:16.274Z,88.34
2023-02-19T00:25:01.723Z,87.94
2023-02-19T00:27:47.766Z,87.14
2023-02-19T00:30:33.382Z,87.28
2023-02-19T00:33:18.877Z,87.33
2023-02-19T00:36:06.144Z,87.08
2023-02-19T00:38:52.095Z,86.59
2023-02-19T00:41:37.493Z,86.24
2023-02-19T00:44:23.175Z,85.47
2023-02-19T00:47:09.934Z,85.48
2023-02-19T00:49:58.236Z,85.24
2023-02-19T00:52:43.689Z,85.34
2023-02-19T00:55:29.536Z,85.13
2023-02-19T00:58:14.839Z,85.07
2023-02-19T01:01:00.394Z,85.23
2023-02-19T01:03:46.960Z,84.41
2023-02-19T01:06:32.916Z,84.61
2023-02-19T01:09:18.354Z,84.49
2023-02-19T01:12:05.835Z,84.49
2023-02-19T01:14:51.407Z,84.09
2023-02-19T01:17:37.052Z,84.51
2023-02-19T01:20:22.954Z,84.60
2023-02-19T01:23:08.871Z,84.00
2023-02-19T01:25:54.242Z,84.29
2023-02-19T01:28:40.209Z,84.33
2023-02-19T01:31:26.099Z,84.45
2023-02-19T01:34:12.962Z,84.35
2023-02-19T01:36:58.314Z,84.37
2023-02-19T01:39:43.680Z,84.41
2023-02-19T01:42:29.026Z,84.50
2023-02-19T01:45:31.011Z,84.38
2023-02-19T01:48:33.562Z,84.27
2023-02-19T01:51:20.807Z,83.88
2023-02-19T01:54:09.495Z,83.88
2023-02-19T01:56:56.653Z,83.18
2023-02-19T01:59:43.185Z,83.29
2023-02-19T02:02:29.092Z,83.36
2023-02-19T02:05:25.251Z,83.11
2023-02-19T02:08:31.787Z,83.19
2023-02-19T02:11:17.215Z,82.73
2023-02-19T02:14:04.239Z,82.63
2023-02-19T02:17:05.017Z,82.70
2023-02-19T02:20:12.996Z,82.52
2023-02-19T02:23:07.282Z,81.94
2023-02-19T02:26:16.189Z,81.57
2023-02-19T02:29:40.435Z,80.72
2023-02-19T02:32:33.255Z,80.90
2023-02-19T02:35:23.877Z,81.16
2023-02-19T02:38:12.928Z,81.03
2023-02-19T02:40:59.077Z,81.37
2023-02-19T02:43:45.037Z,81.49
2023-02-19T02:46:35.930Z,81.46
2023-02-19T02:49:24.284Z,81.15
2023-02-19T02:52:31.150Z,81.09
2023-02-19T02:55:17.416Z,81.21
2023-02-19T02:58:03.157Z,81.09
2023-02-19T03:01:13.571Z,81.08
2023-02-19T03:04:05.110Z,80.37
2023-02-19T03:06:51.196Z,80.71
2023-02-19T03:09:42.117Z,80.92
2023-02-19T03:12:50.705Z,80.63
2023-02-19T03:16:01.341Z,80.59
2023-02-19T03:19:08.912Z,80.96
2023-02-19T03:22:03.151Z,81.15
2023-02-19T03:25:22.881Z,80.72
2023-02-19T03:28:11.306Z,80.79
2023-02-19T03:30:57.247Z,80.99
2023-02-19T03:33:45.575Z,80.97
2023-02-19T03:36:37.986Z,80.99
2023-02-19T03:39:24.107Z,80.98
2023-02-19T03:42:30.084Z,80.70
2023-02-19T03:45:33.988Z,80.40
2023-02-19T03:48:37.138Z,80.86
2023-02-19T03:51:39.218Z,79.76
2023-02-19T03:54:38.162Z,79.93
2023-02-19T03:57:31.337Z,80.36
2023-02-19T04:00:23.187Z,80.80
2023-02-19T04:03:18.820Z,81.43
2023-02-19T04:06:11.670Z,81.24
2023-02-19T04:09:01.994Z,81.12
2023-02-19T04:11:50.352Z,81.03
2023-02-19T04:14:46.277Z,80.51
2023-02-19T04:17:37.384Z,80.67
2023-02-19T04:20:26.160Z,80.30
2023-02-19T04:23:13.063Z,79.84
2023-02-19T04:26:01.193Z,79.79
2023-02-19T04:28:47.133Z,79.59
2023-02-19T04:31:35.782Z,79.64
2023-02-19T04:34:21.329Z,78.84
2023-02-19T04:37:07.611Z,78.80
2023-02-19T04:39:53.035Z,79.17
2023-02-19T04:42:38.623Z,79.52
2023-02-19T04:45:24.046Z,79.62
2023-02-19T04:48:09.357Z,79.33
2023-02-19T04:50:55.173Z,79.09
2023-02-19T04:53:40.723Z,78.99
2023-02-19T04:56:26.431Z,79.02
2023-02-19T04:59:12.853Z,78.88
2023-02-19T05:01:58.227Z,78.19
2023-02-19T05:04:43.699Z,77.70
2023-02-19T05:07:28.967Z,77.21
2023-02-19T05:10:14.303Z,76.82
2023-02-19T05:12:59.628Z,76.23
2023-02-19T05:15:54.928Z,76.08
2023-02-19T05:18:41.256Z,76.23
2023-02-19T05:21:27.153Z,76.29
2023-02-19T05:24:12.621Z,75.90
2023-02-19T05:26:57.934Z,75.85
2023-02-19T05:29:43.451Z,76.13
2023-02-19T05:32:28.785Z,75.89
2023-02-19T05:35:14.368Z,75.96
2023-02-19T05:37:59.899Z,76.10
2023-02-19T05:40:46.427Z,76.25
2023-02-19T05:43:31.979Z,76.22
2023-02-19T05:46:20.157Z,76.29
2023-02-19T05:49:05.968Z,76.40
2023-02-19T05:51:51.596Z,76.55
2023-02-19T05:54:37.017Z,76.35
2023-02-19T05:57:22.563Z,76.95
2023-02-19T06:00:13.134Z,76.31
2023-02-19T06:02:58.560Z,76.05
2023-02-19T06:05:43.916Z,75.67
2023-02-19T06:08:29.294Z,75.75
2023-02-19T06:11:14.780Z,76.14
2023-02-19T06:14:00.444Z,75.72
2023-02-19T06:16:46.180Z,75.45
2023-02-19T06:19:31.488Z,75.63
2023-02-19T06:22:18.281Z,75.55
2023-02-19T06:25:06.968Z,75.74
2023-02-19T06:27:53.602Z,75.48
2023-02-19T06:30:39.092Z,74.78
2023-02-19T06:33:26.734Z,74.54
2023-02-19T06:36:15.755Z,74.93
2023-02-19T06:39:03.115Z,75.09
2023-02-19T06:41:50.771Z,74.98
2023-02-19T06:44:37.619Z,75.28
2023-02-19T06:47:25.552Z,75.79
2023-02-19T06:50:12.818Z,75.12
2023-02-19T06:52:59.298Z,75.56
2023-02-19T06:55:59.688Z,75.88
2023-02-19T06:58:47.118Z,75.76
2023-02-19T07:01:34.343Z,75.92
2023-02-19T07:04:20.019Z,75.42
2023-02-19T07:07:05.617Z,74.99
2023-02-19T07:09:51.179Z,75.21
2023-02-19T07:12:36.628Z,75.12
2023-02-19T07:15:21.945Z,75.12
2023-02-19T07:18:10.372Z,75.31
2023-02-19T07:21:01.713Z,74.98
2023-02-19T07:23:47.022Z,74.38
2023-02-19T07:26:32.868Z,74.47
2023-02-19T07:29:18.450Z,74.43
2023-02-19T07:32:04.324Z,74.54
2023-02-19T07:35:03.647Z,74.70
2023-02-19T07:37:49.809Z,74.34
2023-02-19T07:40:35.836Z,74.31
2023-02-19T07:43:22.402Z,73.56
2023-02-19T07:46:10.944Z,73.72
2023-02-19T07:48:56.467Z,74.30
2023-02-19T07:51:43.862Z,74.14
2023-02-19T07:54:29.677Z,74.41
2023-02-19T07:57:15.657Z,74.25
2023-02-19T08:00:02.566Z,74.30
2023-02-19T08:03:00.995Z,73.91
2023-02-19T08:05:46.461Z,74.08
2023-02-19T08:08:32.012Z,74.07
2023-02-19T08:11:37.931Z,74.46
2023-02-19T08:14:27.575Z,74.98
2023-02-19T08:17:13.010Z,75.10
2023-02-19T08:19:58.380Z,75.17
2023-02-19T08:22:43.849Z,75.44
2023-02-19T08:25:29.331Z,76.16
2023-02-19T08:28:14.941Z,75.81
2023-02-19T08:31:06.702Z,76.30
2023-02-19T08:33:53.544Z,76.15
2023-02-19T08:36:40.154Z,76.38
2023-02-19T08:39:25.608Z,76.67
2023-02-19T08:42:10.985Z,76.70
2023-02-19T08:44:56.550Z,77.21
2023-02-19T08:47:41.890Z,76.56
2023-02-19T08:50:27.652Z,76.72
2023-02-19T08:53:12.999Z,77.39
2023-02-19T08:55:58.579Z,77.56
2023-02-19T08:58:44.571Z,78.34
2023-02-19T09:01:30.018Z,77.83
2023-02-19T09:04:15.333Z,78.38
2023-02-19T09:07:01.142Z,78.55
2023-02-19T09:09:46.342Z,79.40
2023-02-19T09:12:33.596Z,79.69
2023-02-19T09:15:19.558Z,79.37
2023-02-19T09:18:05.592Z,79.82
2023-02-19T09:20:50.871Z,80.07
2023-02-19T09:23:37.341Z,80.44
2023-02-19T09:26:23.720Z,80.36
2023-02-19T09:29:10.435Z,80.76
2023-02-19T09:31:58.145Z,81.14
2023-02-19T09:34:44.630Z,80.57
2023-02-19T09:37:29.785Z,80.91
2023-02-19T09:40:21.458Z,80.75
2023-02-19T09:43:11.900Z,80.97
2023-02-19T09:46:10.394Z,81.27
2023-02-19T09:49:03.546Z,81.21
2023-02-19T09:51:53.997Z,81.12
2023-02-19T09:54:41.600Z,81.57
2023-02-19T09:57:30.331Z,81.92
2023-02-19T10:00:25.086Z,80.99
2023-02-19T10:03:19.868Z,81.29
2023-02-19T10:06:11.584Z,81.56
2023-02-19T10:09:09.288Z,81.40
2023-02-19T10:11:56.433Z,81.42
2023-02-19T10:14:48.662Z,81.53
2023-02-19T10:17:35.676Z,81.02
2023-02-19T10:20:26.619Z,80.70
2023-02-19T10:23:15.674Z,80.37
2023-02-19T10:26:01.536Z,80.42
2023-02-19T10:28:47.094Z,80.23
2023-02-19T10:31:33.795Z,80.38
2023-02-19T10:34:22.367Z,80.24
2023-02-19T10:37:15.151Z,80.57
2023-02-19T10:40:01.603Z,79.91
2023-02-19T10:42:49.140Z,80.32
2023-02-19T10:46:12.934Z,80.38
2023-02-19T10:49:01.277Z,80.14
2023-02-19T10:51:47.972Z,80.15
2023-02-19T10:54:35.526Z,80.39
2023-02-19T10:57:30.363Z,80.64
2023-02-19T11:00:15.868Z,80.56
2023-02-19T11:03:24.616Z,80.44
2023-02-19T11:06:13.301Z,79.89
2023-02-19T11:09:01.007Z,79.81
2023-02-19T11:11:52.145Z,79.78
2023-02-19T11:14:38.451Z,80.18
2023-02-19T11:17:33.375Z,80.44
2023-02-19T11:20:19.090Z,80.37
2023-02-19T11:23:14.974Z,80.86
2023-02-19T11:26:04.103Z,81.29
2023-02-19T11:28:58.243Z,81.53
2023-02-19T11:31:44.641Z,81.70
2023-02-19T11:34:30.526Z,82.06
2023-02-19T11:37:18.173Z,81.74
2023-02-19T11:40:04.965Z,81.94
2023-02-19T11:43:03.725Z,81.57
2023-02-19T11:46:46.901Z,82.42
2023-02-19T11:49:47.608Z,82.18
2023-02-19T11:52:41.333Z,82.62
2023-02-19T11:55:46.223Z,82.89
2023-02-19T11:58:40.121Z,82.94
2023-02-19T12:01:31.526Z,83.01
2023-02-19T12:04:28.903Z,83.06
2023-02-19T12:07:36.944Z,83.07
2023-02-19T12:10:45.077Z,82.38
2023-02-19T12:13:54.017Z,82.40
2023-02-19T12:16:52.750Z,82.40
2023-02-19T12:19:56.772Z,81.70
2023-02-19T12:23:06.997Z,81.21
2023-02-19T12:26:27.667Z,81.71
2023-02-19T12:29:58.576Z,81.98
2023-02-19T12:33:18.604Z,82.22
2023-02-19T12:36:13.039Z,82.22
2023-02-19T12:39:19.540Z,81.60
2023-02-19T12:42:26.421Z,81.64
2023-02-19T12:45:17.781Z,81.94
2023-02-19T12:48:17.102Z,82.09
2023-02-19T12:51:09.944Z,82.28
2023-02-19T12:54:02.557Z,82.13
2023-02-19T12:57:14.341Z,81.43
2023-02-19T13:00:42.606Z,81.79
2023-02-19T13:03:37.775Z,81.68
2023-02-19T13:06:50.095Z,81.03
2023-02-19T13:09:50.715Z,80.81
2023-02-19T13:12:44.670Z,80.90
2023-02-19T13:15:42.524Z,80.37
2023-02-19T13:18:36.999Z,80.99
2023-02-19T13:21:44.590Z,81.45
2023-02-19T13:24:41.781Z,81.89
2023-02-19T13:27:42.404Z,81.30
2023-02-19T13:31:06.234Z,81.61
2023-02-19T13:34:14.325Z,81.54
2023-02-19T13:37:01.764Z,80.57
2023-02-19T13:39:59.963Z,81.14
2023-02-19T13:42:54.210Z,81.03
2023-02-19T13:45:39.494Z,81.43
2023-02-19T13:48:34.641Z,81.41
2023-02-19T13:51:23.041Z,82.33
2023-02-19T13:54:23.288Z,82.08
2023-02-19T13:57:18.090Z,82.42
2023-02-19T14:00:42.688Z,81.72
2023-02-19T14:03:47.903Z,82.78
2023-02-19T14:07:02.108Z,82.91
2023-02-19T14:09:48.068Z,82.84
2023-02-19T14:12:40.361Z,83.11
2023-02-19T14:15:50.012Z,83.32
2023-02-19T14:18:42.778Z,83.63
2023-02-19T14:21:37.652Z,83.59
2023-02-19T14:24:25.747Z,83.70
2023-02-19T14:27:11.672Z,83.93
2023-02-19T14:29:57.152Z,84.06
2023-02-19T14:32:45.247Z,84.22
2023-02-19T14:35:39.405Z,84.45
2023-02-19T14:38:33.739Z,83.84
2023-02-19T14:41:23.303Z,83.24
2023-02-19T14:44:24.928Z,83.13
2023-02-19T14:47:16.918Z,82.37
2023-02-19T14:50:06.341Z,82.76
2023-02-19T14:52:57.618Z,83.09
2023-02-19T14:55:46.651Z,83.42
2023-02-19T14:58:33.337Z,83.43
2023-02-19T15:01:27.202Z,82.87
2023-02-19T15:04:23.080Z,82.78
2023-02-19T15:07:14.118Z,82.72
2023-02-19T15:10:05.767Z,82.40
2023-02-19T15:12:54.595Z,82.42
2023-02-19T15:15:45.389Z,82.32
2023-02-19T15:18:35.781Z,81.32
2023-02-19T15:21:24.941Z,81.50
2023-02-19T15:24:13.717Z,80.48
2023-02-19T15:26:59.626Z,80.35
2023-02-19T15:29:48.215Z,80.05
2023-02-19T15:32:34.335Z,79.86
2023-02-19T15:35:22.897Z,80.09
2023-02-19T15:38:12.538Z,80.01
2023-02-19T15:40:58.638Z,79.65
2023-02-19T15:43:54.286Z,79.51
2023-02-19T15:46:42.662Z,79.50
2023-02-19T15:49:39.026Z,79.54
2023-02-19T15:52:38.564Z,79.73
2023-02-19T15:55:55.243Z,79.65
2023-02-19T15:58:47.707Z,79.53
2023-02-19T16:01:37.599Z,79.92
2023-02-19T16:04:24.038Z,80.08
2023-02-19T16:07:31.980Z,79.74
2023-02-19T16:10:24.816Z,79.84
2023-02-19T16:13:11.620Z,79.58
2023-02-19T16:16:15.673Z,79.42
2023-02-19T16:19:01.457Z,79.27
2023-02-19T16:21:46.864Z,79.31
2023-02-19T16:24:41.173Z,78.88
2023-02-19T16:27:38.424Z,78.59
2023-02-19T16:30:30.958Z,78.79
2023-02-19T16:33:46.138Z,78.92
2023-02-19T16:36:41.421Z,78.95
2023-02-19T16:39:27.181Z,78.88
2023-02-19T16:42:14.480Z,78.60
2023-02-19T16:45:00.153Z,78.57
2023-02-19T16:47:48.585Z,78.57
2023-02-19T16:50:34.445Z,78.66
2023-02-19T16:53:22.513Z,78.25
2023-02-19T16:56:15.590Z,78.46
2023-02-19T16:59:01.206Z,78.60
2023-02-19T17:01:46.491Z,78.68
2023-02-19T17:04:32.259Z,78.80
2023-02-19T17:07:18.528Z,78.56
2023-02-19T17:10:04.433Z,78.96
2023-02-19T17:12:51.184Z,79.11
2023-02-19T17:15:36.951Z,79.08
2023-02-19T17:18:22.789Z,78.79
2023-02-19T17:21:21.094Z,78.79
2023-02-19T17:24:07.384Z,78.94
2023-02-19T17:26:53.557Z,78.73
2023-02-19T17:29:39.785Z,78.53
2023-02-19T17:32:25.619Z,78.39
2023-02-19T17:35:11.007Z,79.21
2023-02-19T17:37:56.182Z,78.61
2023-02-19T17:40:41.619Z,78.49
2023-02-19T17:43:27.016Z,78.62
2023-02-19T17:46:17.262Z,78.94
2023-02-19T17:49:03.036Z,78.63
2023-02-19T17:51:48.259Z,78.94
2023-02-19T17:54:34.446Z,78.76
2023-02-19T17:57:19.929Z,78.98
2023-02-19T18:00:07.088Z,79.30
2023-02-19T18:02:58.444Z,79.43
2023-02-19T18:05:43.941Z,78.71
2023-02-19T18:08:29.217Z,78.84
2023-02-19T18:11:14.475Z,78.74
2023-02-19T18:13:59.743Z,79.19
2023-02-19T18:16:50.355Z,79.12
2023-02-19T18:19:36.084Z,79.08
2023-02-19T18:22:21.821Z,78.70
2023-02-19T18:25:08.415Z,78.93
2023-02-19T18:27:54.571Z,78.46
2023-02-19T18:30:40.933Z,78.83
2023-02-19T18:33:26.979Z,78.45
2023-02-19T18:36:13.053Z,78.29
2023-02-19T18:38:58.577Z,78.09
2023-02-19T18:41:51.577Z,78.05
2023-02-19T18:44:37.475Z,77.65
2023-02-19T18:47:27.506Z,77.69
2023-02-19T18:50:13.351Z,77.22
2023-02-19T18:52:59.407Z,77.09
2023-02-19T18:55:46.010Z,77.39
2023-02-19T18:58:32.089Z,76.88
2023-02-19T19:01:18.103Z,77.03
2023-02-19T19:04:03.744Z,77.19
2023-02-19T19:06:49.811Z,77.08
2023-02-19T19:09:37.125Z,76.98
2023-02-19T19:12:22.971Z,76.80
2023-02-19T19:15:08.981Z,76.20
2023-02-19T19:17:54.679Z,75.90
2023-02-19T19:20:40.436Z,76.03
2023-02-19T19:23:25.840Z,75.84
2023-02-19T19:26:12.687Z,75.62
2023-02-19T19:28:58.944Z,75.37
2023-02-19T19:31:45.880Z,75.63
2023-02-19T19:34:31.715Z,75.55
2023-02-19T19:37:17.430Z,75.34
2023-02-19T19:40:03.979Z,74.96
2023-02-19T19:42:51.874Z,75.48
2023-02-19T19:45:38.313Z,74.77
2023-02-19T19:48:27.510Z,74.38
2023-02-19T19:51:14.793Z,74.39
2023-02-19T19:54:02.242Z,74.39
2023-02-19T19:56:49.754Z,74.43
2023-02-19T19:59:36.992Z,74.55
2023-02-19T20:02:24.006Z,74.30
2023-02-19T20:05:10.639Z,75.02
2023-02-19T20:07:56.975Z,74.46
2023-02-19T20:10:44.564Z,74.64
2023-02-19T20:13:32.694Z,74.22
2023-02-19T20:16:24.440Z,74.82
2023-02-19T20:19:10.908Z,74.26
2023-02-19T20:21:56.432Z,74.54
2023-02-19T20:24:42.356Z,74.17
2023-02-19T20:27:27.744Z,74.12
2023-02-19T20:30:14.297Z,73.94
2023-02-19T20:32:59.786Z,73.99
2023-02-19T20:35:45.281Z,73.80
2023-02-19T20:38:30.780Z,73.77
2023-02-19T20:41:16.276Z,73.35
2023-02-19T20:44:01.783Z,73.19
2023-02-19T20:46:50.529Z,72.91
2023-02-19T20:49:36.351Z,73.21
2023-02-19T20:52:21.923Z,73.12
2023-02-19T20:55:09.180Z,73.12
2023-02-19T20:57:54.761Z,73.61
2023-02-19T21:00:40.612Z,73.24
2023-02-19T21:03:26.138Z,73.22
2023-02-19T21:06:12.150Z,73.38
2023-02-19T21:08:57.593Z,73.61
2023-02-19T21:11:43.095Z,73.81
2023-02-19T21:14:28.797Z,73.20
2023-02-19T21:17:14.277Z,73.32
2023-02-19T21:19:59.581Z,73.01
2023-02-19T21:22:45.011Z,73.32
2023-02-19T21:25:33.025Z,73.26
2023-02-19T21:28:19.748Z,72.93
2023-02-19T21:31:05.213Z,73.08
2023-02-19T21:33:50.679Z,73.17
2023-02-19T21:36:36.729Z,73.53
2023-02-19T21:39:24.838Z,73.41
2023-02-19T21:42:10.815Z,73.45
2023-02-19T21:44:56.651Z,73.65
2023-02-19T21:47:43.182Z,73.30
2023-02-19T21:50:28.968Z,73.21
2023-02-19T21:53:15.501Z,73.34
2023-02-19T21:56:00.971Z,73.34
2023-02-19T21:58:46.394Z,73.39
2023-02-19T22:01:35.747Z,73.23
2023-02-19T22:04:22.153Z,72.79
2023-02-19T22:07:07.809Z,73.39
2023-02-19T22:09:53.265Z,72.88
2023-02-19T22:12:38.436Z,73.46
2023-02-19T22:15:23.912Z,73.23
2023-02-19T22:18:09.272Z,73.71
2023-02-19T22:20:54.686Z,73.42
2023-02-19T22:23:43.875Z,73.71
2023-02-19T22:26:35.986Z,73.87
2023-02-19T22:29:21.543Z,73.81
2023-02-19T22:32:07.201Z,73.51
2023-02-19T22:34:52.988Z,73.83
2023-02-19T22:37:38.591Z,74.01
2023-02-19T22:40:23.883Z,73.71
2023-02-19T22:43:09.414Z,74.00
2023-02-19T22:45:55.209Z,73.91
2023-02-19T22:48:40.701Z,73.62
2023-02-19T22:51:26.315Z,73.67
2023-02-19T22:54:11.953Z,73.69
2023-02-19T22:56:57.308Z,74.07
2023-02-19T22:59:42.874Z,73.78
2023-02-19T23:02:28.134Z,74.00
2023-02-19T23:05:14.609Z,73.93
2023-02-19T23:08:00.030Z,74.08
2023-02-19T23:10:45.368Z,73.78
2023-02-19T23:13:31.032Z,73.95
2023-02-19T23:16:16.758Z,73.75
2023-02-19T23:19:07.385Z,73.38
2023-02-19T23:21:53.064Z,73.98
2023-02-19T23:24:38.798Z,73.41
2023-02-19T23:27:24.296Z,73.46
2023-02-19T23:30:09.997Z,73.57
2023-02-19T23:32:55.655Z,73.52
2023-02-19T23:35:41.084Z,73.52
2023-02-19T23:38:26.571Z,73.45
2023-02-19T23:41:13.832Z,73.86
2023-02-19T23:43:59.203Z,73.49
2023-02-19T23:46:45.470Z,73.91
2023-02-19T23:49:31.080Z,73.76
2023-02-19T23:52:17.781Z,73.86
2023-02-19T23:55:03.303Z,73.64
2023-02-19T23:57:48.670Z,73.70
